createdAt,value
2022-10-17T00:03:19.834Z,33.00
2022-10-17T00:07:23.150Z,30.47
2022-10-17T00:11:27.975Z,30.70
2022-10-17T00:15:33.136Z,28.77
2022-10-17T00:19:36.433Z,29.63
2022-10-17T00:23:39.720Z,30.07
2022-10-17T00:27:43.279Z,32.77
2022-10-17T00:31:47.948Z,29.97
2022-10-17T00:35:51.285Z,30.40
2022-10-17T00:39:55.293Z,30.60
2022-10-17T00:44:01.584Z,29.30
2022-10-17T00:48:10.625Z,29.73
2022-10-17T00:52:17.725Z,30.80
2022-10-17T00:56:22.462Z,30.83
2022-10-17T01:00:26.135Z,29.90
2022-10-17T01:04:30.900Z,29.40
2022-10-17T01:08:34.311Z,29.90
2022-10-17T01:12:52.481Z,29.77
2022-10-17T01:17:04.073Z,27.33
2022-10-17T01:21:34.743Z,30.83
2022-10-17T01:25:47.276Z,28.50
2022-10-17T01:30:05.206Z,29.00
2022-10-17T01:34:15.843Z,29.70
2022-10-17T01:38:24.448Z,29.90
2022-10-17T01:42:32.483Z,28.83
2022-10-17T01:46:39.044Z,29.87
2022-10-17T01:50:47.759Z,27.67
2022-10-17T01:54:54.077Z,29.37
2022-10-17T01:59:02.601Z,30.47
2022-10-17T02:03:10.733Z,28.13
2022-10-17T02:07:15.585Z,27.40
2022-10-17T02:11:21.589Z,31.20
2022-10-17T02:15:41.666Z,29.47
2022-10-17T02:19:56.327Z,27.50
2022-10-17T02:24:08.601Z,30.10
2022-10-17T02:28:21.350Z,29.67
2022-10-17T02:32:27.920Z,30.10
2022-10-17T02:36:36.128Z,27.63
2022-10-17T02:40:44.030Z,28.90
2022-10-17T02:44:48.473Z,28.63
2022-10-17T02:48:55.696Z,29.30
2022-10-17T02:53:05.908Z,30.47
2022-10-17T02:57:15.044Z,31.27
2022-10-17T03:01:19.944Z,27.67
2022-10-17T03:05:25.959Z,30.73
2022-10-17T03:09:30.179Z,29.27
2022-10-17T03:13:38.920Z,28.53
2022-10-17T03:17:43.293Z,32.23
2022-10-17T03:21:46.597Z,27.90
2022-10-17T03:25:52.255Z,32.90
2022-10-17T03:29:56.941Z,29.63
2022-10-17T03:34:00.237Z,31.90
2022-10-17T03:38:03.540Z,30.23
2022-10-17T03:42:06.834Z,28.80
2022-10-17T03:46:11.585Z,29.13
2022-10-17T03:50:15.179Z,25.97
2022-10-17T03:54:18.436Z,29.40
2022-10-17T03:58:22.914Z,28.43
2022-10-17T04:02:27.598Z,27.73
2022-10-17T04:06:30.948Z,28.17
2022-10-17T04:10:34.302Z,28.53
2022-10-17T04:14:38.950Z,29.87
2022-10-17T04:18:44.249Z,31.13
2022-10-17T04:22:47.519Z,31.47
2022-10-17T04:26:52.225Z,31.33
2022-10-17T04:31:02.904Z,30.00
2022-10-17T04:35:08.526Z,31.60
2022-10-17T04:43:15.126Z,30.20
2022-10-17T04:47:18.458Z,29.87
2022-10-17T04:51:25.896Z,32.13
2022-10-17T04:55:30.046Z,32.20
2022-10-17T04:59:33.352Z,33.40
2022-10-17T05:03:37.182Z,33.40
2022-10-17T05:07:42.926Z,31.87
2022-10-17T05:11:46.229Z,34.40
2022-10-17T05:15:50.110Z,33.00
2022-10-17T05:19:53.696Z,29.20
2022-10-17T05:23:58.770Z,31.20
2022-10-17T05:28:02.205Z,30.57
2022-10-17T05:32:06.167Z,31.73
2022-10-17T05:36:10.043Z,31.60
2022-10-17T05:40:15.618Z,30.13
2022-10-17T05:44:21.099Z,30.73
2022-10-17T05:48:25.470Z,31.87
2022-10-17T05:52:29.083Z,31.17
2022-10-17T05:56:33.986Z,29.70
2022-10-17T06:00:37.501Z,30.33
2022-10-17T06:04:45.623Z,30.13
2022-10-17T06:08:48.929Z,32.40
2022-10-17T06:12:53.618Z,29.27
2022-10-17T06:16:57.245Z,29.37
2022-10-17T06:21:04.971Z,29.53
2022-10-17T06:25:09.045Z,30.10
2022-10-17T06:29:13.962Z,30.70
2022-10-17T06:33:18.066Z,29.90
2022-10-17T06:37:21.365Z,28.60
2022-10-17T06:41:25.477Z,28.23
2022-10-17T06:45:31.065Z,30.73
2022-10-17T06:49:41.528Z,32.60
2022-10-17T06:53:45.169Z,32.50
2022-10-17T06:57:48.805Z,30.07
2022-10-17T07:01:53.751Z,29.53
2022-10-17T07:05:57.865Z,30.90
2022-10-17T07:10:01.274Z,31.20
2022-10-17T07:14:05.093Z,30.50
2022-10-17T07:18:09.822Z,29.40
2022-10-17T07:22:14.153Z,30.97
2022-10-17T07:26:19.861Z,31.80
2022-10-17T07:30:24.083Z,32.83
2022-10-17T07:34:31.626Z,32.00
2022-10-17T07:38:36.116Z,31.77
2022-10-17T07:46:42.930Z,31.97
2022-10-17T07:50:47.774Z,31.47
2022-10-17T07:54:51.225Z,29.77
2022-10-17T07:58:55.002Z,32.13
2022-10-17T08:02:58.307Z,29.67
2022-10-17T08:07:19.717Z,31.23
2022-10-17T08:11:25.478Z,31.13
2022-10-17T08:15:31.730Z,31.50
2022-10-17T08:19:35.566Z,26.13
2022-10-17T08:23:40.235Z,24.60
2022-10-17T08:27:43.540Z,23.60
2022-10-17T08:31:48.332Z,26.90
2022-10-17T08:35:53.251Z,23.37
2022-10-17T08:39:57.937Z,24.13
2022-10-17T08:44:12.446Z,22.27
2022-10-17T08:48:19.556Z,21.33
2022-10-17T08:52:31.179Z,20.60
2022-10-17T08:56:48.986Z,20.90
2022-10-17T09:01:02.158Z,18.50
2022-10-17T09:05:29.624Z,17.80
2022-10-17T09:09:41.060Z,16.30
2022-10-17T09:13:59.882Z,19.20
2022-10-17T09:18:15.883Z,15.87
2022-10-17T09:22:25.432Z,18.40
2022-10-17T09:26:29.590Z,20.80
2022-10-17T09:30:46.444Z,20.30
2022-10-17T09:34:50.108Z,20.77
2022-10-17T09:38:55.772Z,18.57
2022-10-17T09:42:59.939Z,18.77
2022-10-17T09:47:19.762Z,19.30
2022-10-17T09:51:26.110Z,18.47
2022-10-17T09:55:38.841Z,19.33
2022-10-17T09:59:43.992Z,19.63
2022-10-17T10:03:48.942Z,19.23
2022-10-17T10:08:04.401Z,20.40
2022-10-17T10:12:18.959Z,18.67
2022-10-17T10:16:25.530Z,18.67
2022-10-17T10:20:34.685Z,19.40
2022-10-17T10:24:37.977Z,16.83
2022-10-17T10:28:42.124Z,19.23
2022-10-17T10:32:49.600Z,17.83
2022-10-17T10:36:58.800Z,16.83
2022-10-17T10:41:07.524Z,18.70
2022-10-17T10:45:42.892Z,16.30
2022-10-17T10:49:41.948Z,17.07
2022-10-17T10:53:51.447Z,16.67
2022-10-17T10:57:57.946Z,18.20
2022-10-17T11:02:05.776Z,17.07
2022-10-17T11:06:15.722Z,17.93
2022-10-17T11:10:24.338Z,14.80
2022-10-17T11:14:39.632Z,17.20
2022-10-17T11:18:48.564Z,16.20
2022-10-17T11:22:57.810Z,17.00
2022-10-17T11:27:05.847Z,19.10
2022-10-17T11:31:13.984Z,15.80
2022-10-17T11:35:22.216Z,16.23
2022-10-17T11:39:35.104Z,15.60
2022-10-17T11:43:46.329Z,16.73
2022-10-17T11:47:54.361Z,16.90
2022-10-17T11:52:08.052Z,16.23
2022-10-17T11:56:12.899Z,16.77
2022-10-17T12:00:41.716Z,14.53
2022-10-17T12:04:55.956Z,14.80
2022-10-17T12:09:07.438Z,15.87
2022-10-17T12:14:00.071Z,16.00
2022-10-17T12:18:20.496Z,15.07
2022-10-17T12:22:27.558Z,14.33
2022-10-17T12:26:32.691Z,15.47
2022-10-17T12:30:39.299Z,15.33
2022-10-17T12:34:58.717Z,15.17
2022-10-17T12:39:32.760Z,15.70
2022-10-17T12:43:48.683Z,16.00
2022-10-17T12:47:52.001Z,17.33
2022-10-17T12:52:31.643Z,17.57
2022-10-17T12:56:39.861Z,15.70
2022-10-17T13:01:05.122Z,17.10
2022-10-17T13:05:17.870Z,17.83
2022-10-17T13:09:27.525Z,18.00
2022-10-17T13:13:40.463Z,17.30
2022-10-17T13:17:43.986Z,17.27
2022-10-17T13:21:52.272Z,18.83
2022-10-17T13:26:09.153Z,18.30
2022-10-17T13:30:32.435Z,17.70
2022-10-17T13:34:36.931Z,18.00
2022-10-17T13:38:42.642Z,19.70
2022-10-17T13:42:46.901Z,19.30
2022-10-17T13:46:52.461Z,19.17
2022-10-17T13:51:02.442Z,19.93
2022-10-17T13:55:14.283Z,19.70
2022-10-17T13:59:24.772Z,19.20
2022-10-17T14:03:42.579Z,19.53
2022-10-17T14:12:20.123Z,17.73
2022-10-17T14:16:27.165Z,17.73
2022-10-17T14:21:31.806Z,18.53
2022-10-17T14:25:00.269Z,19.03
2022-10-17T14:29:19.440Z,21.00
2022-10-17T14:33:28.332Z,21.43
2022-10-17T14:37:41.331Z,22.00
2022-10-17T14:41:48.488Z,22.83
2022-10-17T14:45:53.206Z,21.23
2022-10-17T14:50:08.439Z,21.50
2022-10-17T14:54:23.786Z,22.37
2022-10-17T14:58:29.087Z,22.20
2022-10-17T15:02:35.813Z,22.93
2022-10-17T15:06:40.714Z,21.67
2022-10-17T15:10:51.469Z,22.67
2022-10-17T15:14:56.400Z,24.97
2022-10-17T15:18:59.748Z,25.70
2022-10-17T15:23:04.132Z,23.13
2022-10-17T15:27:18.456Z,22.73
2022-10-17T15:31:23.449Z,24.40
2022-10-17T15:35:27.587Z,23.70
2022-10-17T15:39:31.101Z,21.27
2022-10-17T15:43:36.248Z,24.23
2022-10-17T15:47:40.175Z,24.93
2022-10-17T15:51:43.535Z,26.10
2022-10-17T15:55:50.343Z,25.47
2022-10-17T15:59:57.252Z,27.10
2022-10-17T16:04:00.867Z,24.57
2022-10-17T16:08:17.485Z,25.80
2022-10-17T16:12:28.305Z,26.33
2022-10-17T16:16:33.813Z,26.57
2022-10-17T16:20:37.884Z,24.00
2022-10-17T16:24:41.204Z,27.87
2022-10-17T16:28:47.222Z,26.90
2022-10-17T16:32:52.631Z,27.40
2022-10-17T16:36:56.333Z,27.30
2022-10-17T16:41:00.323Z,26.73
2022-10-17T16:45:03.671Z,27.53
2022-10-17T16:49:09.016Z,27.70
2022-10-17T16:53:13.534Z,27.07
2022-10-17T16:57:17.060Z,26.00
2022-10-17T17:01:23.223Z,28.57
2022-10-17T17:05:28.434Z,29.00
2022-10-17T17:09:32.489Z,28.00
2022-10-17T17:13:39.380Z,30.20
2022-10-17T17:17:51.253Z,28.90
2022-10-17T17:21:57.982Z,27.60
2022-10-17T17:26:03.781Z,29.70
2022-10-17T17:30:09.031Z,31.80
2022-10-17T17:34:15.655Z,30.07
2022-10-17T17:38:23.862Z,30.30
2022-10-17T17:42:28.666Z,29.70
2022-10-17T17:46:33.715Z,30.23
2022-10-17T17:50:41.240Z,31.97
2022-10-17T17:54:48.267Z,28.23
2022-10-17T17:59:06.932Z,30.20
2022-10-17T18:03:24.380Z,28.30
2022-10-17T18:07:31.630Z,31.37
2022-10-17T18:11:46.486Z,32.93
2022-10-17T18:16:08.552Z,31.00
2022-10-17T18:20:25.786Z,30.63
2022-10-17T18:24:36.100Z,32.60
2022-10-17T18:28:47.036Z,37.30
2022-10-17T18:32:58.482Z,39.80
2022-10-17T18:37:04.958Z,37.10
2022-10-17T18:41:17.413Z,36.17
2022-10-17T18:45:29.547Z,38.07
2022-10-17T18:49:38.577Z,31.20
2022-10-17T18:54:24.679Z,34.67
2022-10-17T18:58:35.604Z,34.77
2022-10-17T19:02:44.202Z,33.03
2022-10-17T19:06:54.397Z,34.40
2022-10-17T19:11:02.022Z,32.63
2022-10-17T19:15:17.235Z,33.60
2022-10-17T19:19:29.540Z,33.73
2022-10-17T19:23:39.471Z,35.90
2022-10-17T19:27:46.238Z,33.93
2022-10-17T19:31:53.659Z,33.13
2022-10-17T19:36:07.911Z,34.60
2022-10-17T19:40:21.249Z,32.07
2022-10-17T19:44:31.851Z,35.87
2022-10-17T19:48:37.992Z,34.60
2022-10-17T19:52:44.182Z,33.33
2022-10-17T19:56:48.628Z,34.97
2022-10-17T20:00:58.672Z,32.40
2022-10-17T20:05:18.826Z,33.10
2022-10-17T20:09:25.621Z,34.43
2022-10-17T20:13:29.291Z,31.87
2022-10-17T20:21:37.531Z,28.63
2022-10-17T20:25:42.299Z,33.80
2022-10-17T20:29:46.651Z,30.27
2022-10-17T20:33:49.914Z,31.53
2022-10-17T20:37:53.301Z,30.47
2022-10-17T20:41:57.924Z,31.67
2022-10-17T20:46:09.685Z,31.90
2022-10-17T20:50:19.297Z,32.33
2022-10-17T20:54:22.991Z,31.70
2022-10-17T20:58:27.801Z,31.23
2022-10-17T21:02:31.235Z,31.60
2022-10-17T21:06:36.772Z,29.40
2022-10-17T21:10:40.480Z,30.10
2022-10-17T21:14:45.147Z,31.93
2022-10-17T21:18:49.473Z,30.20
2022-10-17T21:22:52.887Z,28.20
2022-10-17T21:26:57.654Z,30.37
2022-10-17T21:31:11.709Z,33.37
2022-10-17T21:35:14.963Z,32.37
2022-10-17T21:39:18.935Z,29.93
2022-10-17T21:43:22.202Z,29.20
2022-10-17T21:47:27.750Z,30.63
2022-10-17T21:51:31.101Z,30.30
2022-10-17T21:55:37.050Z,32.70
2022-10-17T21:59:40.309Z,28.93
2022-10-17T22:03:47.035Z,32.33
2022-10-17T22:07:50.345Z,30.63
2022-10-17T22:11:55.258Z,30.47
2022-10-17T22:16:00.789Z,31.10
2022-10-17T22:20:06.246Z,32.13
2022-10-17T22:24:13.512Z,31.43
2022-10-17T22:28:16.795Z,31.90
2022-10-17T22:32:22.450Z,32.60
2022-10-17T22:36:27.464Z,32.23
2022-10-17T22:40:30.778Z,31.00
2022-10-17T22:44:34.114Z,29.50
2022-10-17T22:48:38.482Z,30.90
2022-10-17T22:52:43.106Z,30.73
2022-10-17T22:56:46.391Z,32.33
2022-10-17T23:00:50.062Z,31.20
2022-10-17T23:04:53.356Z,30.60
2022-10-17T23:08:58.004Z,32.97
2022-10-17T23:13:01.338Z,29.17
2022-10-17T23:17:05.198Z,30.87
2022-10-17T23:21:09.969Z,32.77
2022-10-17T23:25:14.635Z,29.30
2022-10-17T23:29:17.901Z,31.83
2022-10-17T23:33:24.141Z,29.67
2022-10-17T23:37:37.197Z,30.60
2022-10-17T23:41:41.875Z,29.77
2022-10-17T23:45:45.323Z,31.90
2022-10-17T23:49:48.612Z,30.87
2022-10-17T23:53:51.861Z,29.63
2022-10-17T23:57:56.574Z,30.57
